createdAt,value
2017-07-08T00:00:13.053Z,99.99
2017-07-08T00:01:23.326Z,99.99
2017-07-08T00:02:33.860Z,99.99
2017-07-08T00:03:44.161Z,99.99
2017-07-08T00:04:54.435Z,99.99
2017-07-08T00:06:04.720Z,99.99
2017-07-08T00:07:14.979Z,99.99
2017-07-08T00:08:25.588Z,99.99
2017-07-08T00:09:35.534Z,99.99
2017-07-08T00:10:45.491Z,99.99
2017-07-08T00:11:55.128Z,99.99
2017-07-08T00:13:05.411Z,99.99
2017-07-08T00:14:15.620Z,99.99
2017-07-08T00:15:25.898Z,99.99
2017-07-08T00:16:36.171Z,99.99
2017-07-08T00:17:45.833Z,99.99
2017-07-08T00:18:56.109Z,99.99
2017-07-08T00:20:06.627Z,99.99
2017-07-08T00:21:16.584Z,99.99
2017-07-08T00:22:26.850Z,99.99
2017-07-08T00:23:37.107Z,99.99
2017-07-08T00:24:47.375Z,99.99
2017-07-08T00:25:57.606Z,99.99
2017-07-08T00:27:07.893Z,99.99
2017-07-08T00:28:18.190Z,99.99
2017-07-08T00:29:28.463Z,99.99
2017-07-08T00:30:38.784Z,99.99
2017-07-08T00:31:49.301Z,99.99
2017-07-08T00:32:59.263Z,99.99
2017-07-08T00:34:09.236Z,99.99
2017-07-08T00:35:18.878Z,99.99
2017-07-08T00:36:29.147Z,99.99
2017-07-08T00:37:39.346Z,99.99
2017-07-08T00:38:49.602Z,99.99
2017-07-08T00:39:59.570Z,99.99
2017-07-08T00:41:09.840Z,99.99
2017-07-08T00:42:19.795Z,99.99
2017-07-08T00:43:30.367Z,99.99
2017-07-08T00:44:40.327Z,99.99
2017-07-08T00:45:50.603Z,99.99
2017-07-08T00:47:00.246Z,99.99
2017-07-08T00:48:10.193Z,99.99
2017-07-08T00:49:20.750Z,99.99
2017-07-08T00:50:31.034Z,99.99
2017-07-08T00:51:40.992Z,99.99
2017-07-08T00:52:50.937Z,99.99
2017-07-08T00:54:01.199Z,99.99
2017-07-08T00:55:11.761Z,99.99
2017-07-08T00:56:22.039Z,99.99
2017-07-08T00:57:32.306Z,99.99
2017-07-08T00:58:42.570Z,99.99
2017-07-08T00:59:52.525Z,99.99
2017-07-08T01:01:02.733Z,99.99
2017-07-08T01:02:12.698Z,99.99
2017-07-08T01:03:22.958Z,99.99
2017-07-08T01:04:33.218Z,99.99
2017-07-08T01:05:43.468Z,99.99
2017-07-08T01:06:54.041Z,99.99
2017-07-08T01:08:03.986Z,99.99
2017-07-08T01:09:13.943Z,99.99
2017-07-08T01:10:24.204Z,99.99
2017-07-08T01:11:34.492Z,99.99
2017-07-08T01:12:45.059Z,99.99
2017-07-08T01:13:55.382Z,99.99
2017-07-08T01:15:05.638Z,99.99
2017-07-08T01:16:15.906Z,99.99
2017-07-08T01:17:26.179Z,99.99
2017-07-08T01:18:36.079Z,99.99
2017-07-08T01:19:46.349Z,99.99
2017-07-08T01:20:56.634Z,99.99
2017-07-08T01:22:06.905Z,99.99
2017-07-08T01:23:17.156Z,99.99
2017-07-08T01:24:27.718Z,99.99
2017-07-08T01:25:37.975Z,99.99
2017-07-08T01:26:47.608Z,99.99
2017-07-08T01:27:57.868Z,99.99
2017-07-08T01:29:08.135Z,99.99
2017-07-08T01:30:18.710Z,99.99
2017-07-08T01:31:28.344Z,99.99
2017-07-08T01:32:38.591Z,99.99
2017-07-08T01:33:48.537Z,99.99
2017-07-08T01:34:58.822Z,99.99
2017-07-08T01:36:09.395Z,99.99
2017-07-08T01:37:19.647Z,99.99
2017-07-08T01:38:29.274Z,99.99
2017-07-08T01:39:39.546Z,99.99
2017-07-08T01:40:49.797Z,99.99
2017-07-08T01:42:00.052Z,99.99
2017-07-08T01:43:10.314Z,99.99
2017-07-08T01:44:20.586Z,99.99
2017-07-08T01:45:30.862Z,99.99
2017-07-08T01:46:41.128Z,99.99
2017-07-08T01:47:51.394Z,99.99
2017-07-08T01:49:01.650Z,99.99
2017-07-08T01:50:11.614Z,99.99
2017-07-08T01:51:21.574Z,99.99
2017-07-08T01:52:31.825Z,99.99
2017-07-08T01:53:42.084Z,99.99
2017-07-08T01:54:52.050Z,99.99
2017-07-08T01:56:02.332Z,99.99
2017-07-08T01:57:12.605Z,99.99
2017-07-08T01:58:22.876Z,99.99
2017-07-08T01:59:33.445Z,99.99
2017-07-08T02:00:43.717Z,99.99
2017-07-08T02:01:53.981Z,99.99
2017-07-08T02:03:03.945Z,99.99
2017-07-08T02:04:13.915Z,99.99
2017-07-08T02:05:24.114Z,99.99
2017-07-08T02:06:34.075Z,99.99
2017-07-08T02:07:44.052Z,99.99
2017-07-08T02:08:54.318Z,99.99
2017-07-08T02:10:04.269Z,99.99
2017-07-08T02:11:14.850Z,99.99
2017-07-08T02:12:25.132Z,99.99
2017-07-08T02:13:35.075Z,99.99
2017-07-08T02:14:45.354Z,99.99
2017-07-08T02:15:55.618Z,99.99
2017-07-08T02:17:06.195Z,99.99
2017-07-08T02:18:16.470Z,99.99
2017-07-08T02:19:26.749Z,99.99
2017-07-08T02:20:37.008Z,99.99
2017-07-08T02:21:47.281Z,99.99
2017-07-08T02:22:57.848Z,99.99
2017-07-08T02:24:08.100Z,99.99
2017-07-08T02:25:18.371Z,99.99
2017-07-08T02:26:28.346Z,99.99
2017-07-08T02:27:38.293Z,99.99
2017-07-08T02:28:48.809Z,99.99
2017-07-08T02:29:59.078Z,99.99
2017-07-08T02:31:09.351Z,99.99
2017-07-08T02:32:19.636Z,99.99
2017-07-08T02:33:29.878Z,99.99
2017-07-08T02:34:40.399Z,99.99
2017-07-08T02:35:50.045Z,99.99
2017-07-08T02:36:59.992Z,99.99
2017-07-08T02:38:10.492Z,99.99
2017-07-08T02:39:20.753Z,99.99
2017-07-08T02:40:31.340Z,99.99
2017-07-08T02:41:41.607Z,99.99
2017-07-08T02:42:51.866Z,99.99
2017-07-08T02:44:02.143Z,99.99
2017-07-08T02:45:12.420Z,99.99
2017-07-08T02:46:22.986Z,99.99
2017-07-08T02:47:32.940Z,99.99
2017-07-08T02:48:43.208Z,99.99
2017-07-08T02:49:53.464Z,99.99
2017-07-08T02:51:03.425Z,99.99
2017-07-08T02:52:14.002Z,99.99
2017-07-08T02:53:24.279Z,99.99
2017-07-08T02:54:34.552Z,99.99
2017-07-08T02:55:44.831Z,99.99
2017-07-08T02:56:55.115Z,99.99
2017-07-08T02:58:05.671Z,99.99
2017-07-08T02:59:15.932Z,99.99
2017-07-08T03:00:26.253Z,99.99
2017-07-08T03:01:36.524Z,99.99
2017-07-08T03:02:46.480Z,99.99
2017-07-08T03:03:57.057Z,99.99
2017-07-08T03:05:06.697Z,99.99
2017-07-08T03:06:16.972Z,99.99
2017-07-08T03:07:27.242Z,99.99
2017-07-08T03:08:37.507Z,99.99
2017-07-08T03:09:48.013Z,99.99
2017-07-08T03:10:57.982Z,99.99
2017-07-08T03:12:07.936Z,99.99
2017-07-08T03:13:18.203Z,99.99
2017-07-08T03:14:28.148Z,99.99
2017-07-08T03:15:38.663Z,99.99
2017-07-08T03:16:48.948Z,99.99
2017-07-08T03:17:58.898Z,99.99
2017-07-08T03:19:08.867Z,99.99
2017-07-08T03:20:19.152Z,99.99
2017-07-08T03:21:29.737Z,99.99
2017-07-08T03:22:40.004Z,99.99
2017-07-08T03:23:49.643Z,99.99
2017-07-08T03:24:59.911Z,99.99
2017-07-08T03:26:09.541Z,99.99
2017-07-08T03:27:20.067Z,99.99
2017-07-08T03:28:30.343Z,99.99
2017-07-08T03:29:40.607Z,99.99
2017-07-08T03:30:50.870Z,99.99
2017-07-08T03:32:01.178Z,99.99
2017-07-08T03:33:11.731Z,99.99
2017-07-08T03:34:22.008Z,99.99
2017-07-08T03:35:32.268Z,99.99
2017-07-08T03:36:42.529Z,99.99
2017-07-08T03:37:52.793Z,99.99
2017-07-08T03:39:03.126Z,99.99
2017-07-08T03:40:13.389Z,99.99
2017-07-08T03:41:23.339Z,99.99
2017-07-08T03:42:33.279Z,99.99
2017-07-08T03:43:43.552Z,99.99
2017-07-08T03:44:54.075Z,99.99
2017-07-08T03:46:04.343Z,99.99
2017-07-08T03:47:14.616Z,99.99
2017-07-08T03:48:24.574Z,99.99
2017-07-08T03:49:34.839Z,99.99
2017-07-08T03:50:45.427Z,99.99
2017-07-08T03:51:55.370Z,99.99
2017-07-08T03:53:05.311Z,99.99
2017-07-08T03:54:15.592Z,99.99
2017-07-08T03:55:25.853Z,99.99
2017-07-08T03:56:36.426Z,99.99
2017-07-08T03:57:46.691Z,99.99
2017-07-08T03:58:56.947Z,99.99
2017-07-08T04:00:07.228Z,99.99
2017-07-08T04:01:17.493Z,99.99
2017-07-08T04:02:28.050Z,99.99
2017-07-08T04:03:38.012Z,99.99
2017-07-08T04:04:48.286Z,99.99
2017-07-08T04:05:58.548Z,99.99
2017-07-08T04:07:08.828Z,99.99
2017-07-08T04:08:19.343Z,99.99
2017-07-08T04:09:29.624Z,99.99
2017-07-08T04:10:39.583Z,99.99
2017-07-08T04:11:49.841Z,99.99
2017-07-08T04:12:59.492Z,99.99
2017-07-08T04:14:09.715Z,99.99
2017-07-08T04:15:19.987Z,99.99
2017-07-08T04:16:29.608Z,99.99
2017-07-08T04:17:39.549Z,99.99
2017-07-08T04:18:49.889Z,99.99
2017-07-08T04:19:59.820Z,99.99
2017-07-08T04:21:10.090Z,99.99
2017-07-08T04:22:20.355Z,99.99
2017-07-08T04:23:30.639Z,99.99
2017-07-08T04:24:40.909Z,99.99
2017-07-08T04:25:51.544Z,99.99
2017-07-08T04:27:01.816Z,99.99
2017-07-08T04:28:11.779Z,99.99
2017-07-08T04:29:21.725Z,99.99
2017-07-08T04:30:32.054Z,99.99
2017-07-08T04:31:42.625Z,99.99
2017-07-08T04:32:52.583Z,99.99
2017-07-08T04:34:02.525Z,99.99
2017-07-08T04:35:12.825Z,99.99
2017-07-08T04:36:23.096Z,99.99
2017-07-08T04:37:33.356Z,99.99
2017-07-08T04:38:43.360Z,99.99
2017-07-08T04:39:53.632Z,99.99
2017-07-08T04:41:03.906Z,99.99
2017-07-08T04:42:14.183Z,99.99
2017-07-08T04:43:24.394Z,99.99
2017-07-08T04:44:34.344Z,99.99
2017-07-08T04:45:44.614Z,99.99
2017-07-08T04:46:54.887Z,99.99
2017-07-08T04:48:05.155Z,99.99
2017-07-08T04:49:15.674Z,99.99
2017-07-08T04:50:25.957Z,99.99
2017-07-08T04:51:36.232Z,99.99
2017-07-08T04:52:46.187Z,99.99
2017-07-08T04:53:56.452Z,99.99
2017-07-08T04:55:06.698Z,99.99
2017-07-08T04:56:16.987Z,99.99
2017-07-08T04:57:27.250Z,99.99
2017-07-08T04:58:37.207Z,99.99
2017-07-08T04:59:47.479Z,99.99
2017-07-08T05:00:57.683Z,99.99
2017-07-08T05:02:07.649Z,99.99
2017-07-08T05:03:17.906Z,99.99
2017-07-08T05:04:28.659Z,99.99
2017-07-08T05:05:38.611Z,99.99
2017-07-08T05:06:48.503Z,99.99
2017-07-08T05:07:58.452Z,99.99
2017-07-08T05:09:08.709Z,99.99
2017-07-08T05:10:18.963Z,99.99
2017-07-08T05:11:28.920Z,99.99
2017-07-08T05:12:39.445Z,99.99
2017-07-08T05:13:49.723Z,99.99
2017-07-08T05:14:59.365Z,99.99
2017-07-08T05:16:09.649Z,99.99
2017-07-08T05:17:20.004Z,99.99
2017-07-08T05:18:30.521Z,99.99
2017-07-08T05:19:40.481Z,99.99
2017-07-08T05:20:50.792Z,99.99
2017-07-08T05:22:00.742Z,99.99
2017-07-08T05:23:10.698Z,99.99
2017-07-08T05:24:21.205Z,99.99
2017-07-08T05:25:31.464Z,99.99
2017-07-08T05:26:41.716Z,99.99
2017-07-08T05:27:51.986Z,99.99
2017-07-08T05:29:01.993Z,99.99
2017-07-08T05:30:12.579Z,99.99
2017-07-08T05:31:22.845Z,99.99
2017-07-08T05:32:33.121Z,99.99
2017-07-08T05:33:43.395Z,99.99
2017-07-08T05:34:53.651Z,99.99
2017-07-08T05:36:03.907Z,99.99
2017-07-08T05:37:14.189Z,99.99
2017-07-08T05:38:24.451Z,99.99
2017-07-08T05:39:34.721Z,99.99
2017-07-08T05:40:44.996Z,99.99
2017-07-08T05:41:55.213Z,99.99
2017-07-08T05:43:05.484Z,99.99
2017-07-08T05:44:15.762Z,99.99
2017-07-08T05:45:26.029Z,99.99
2017-07-08T05:46:36.297Z,99.99
2017-07-08T05:47:46.868Z,99.99
2017-07-08T05:48:57.139Z,99.99
2017-07-08T05:50:07.435Z,99.99
2017-07-08T05:51:17.701Z,99.99
2017-07-08T05:52:27.956Z,99.99
2017-07-08T05:53:38.484Z,99.99
2017-07-08T05:54:48.438Z,99.99
2017-07-08T05:55:58.394Z,99.99
2017-07-08T05:57:08.654Z,99.99
2017-07-08T05:58:18.595Z,99.99
2017-07-08T05:59:28.478Z,99.99
2017-07-08T06:00:38.760Z,99.99
2017-07-08T06:01:49.024Z,99.99
2017-07-08T06:02:58.985Z,99.99
2017-07-08T06:04:09.260Z,99.99
2017-07-08T06:05:19.776Z,99.99
2017-07-08T06:06:30.040Z,99.99
2017-07-08T06:07:40.306Z,99.99
2017-07-08T06:08:50.574Z,99.99
2017-07-08T06:10:00.844Z,99.99
2017-07-08T06:11:11.058Z,99.99
2017-07-08T06:12:21.371Z,99.99
2017-07-08T06:13:31.320Z,99.99
2017-07-08T06:14:41.636Z,99.99
2017-07-08T06:15:51.590Z,99.99
2017-07-08T06:17:02.112Z,99.99
2017-07-08T06:18:12.369Z,99.99
2017-07-08T06:19:22.650Z,99.99
2017-07-08T06:20:32.907Z,99.99
2017-07-08T06:21:42.879Z,99.99
2017-07-08T06:22:53.396Z,99.99
2017-07-08T06:24:03.336Z,99.99
2017-07-08T06:25:13.585Z,99.99
2017-07-08T06:26:23.542Z,99.99
2017-07-08T06:27:33.811Z,99.99
2017-07-08T06:28:44.321Z,99.99
2017-07-08T06:29:54.581Z,99.99
2017-07-08T06:31:04.536Z,99.99
2017-07-08T06:32:14.814Z,99.99
2017-07-08T06:33:24.755Z,99.99
2017-07-08T06:34:34.654Z,99.99
2017-07-08T06:35:44.939Z,99.73
2017-07-08T06:36:55.212Z,99.99
2017-07-08T06:38:05.476Z,99.06
2017-07-08T06:39:14.806Z,99.68
2017-07-08T06:40:25.404Z,99.99
2017-07-08T06:41:35.356Z,99.49
2017-07-08T06:42:45.419Z,99.54
2017-07-08T06:43:55.718Z,99.68
2017-07-08T06:45:05.981Z,99.49
2017-07-08T06:46:16.505Z,99.4
2017-07-08T06:47:26.770Z,99.83
2017-07-08T06:48:37.037Z,98.82
2017-07-08T06:49:47.309Z,99.68
2017-07-08T06:50:57.596Z,98.44
2017-07-08T06:52:07.478Z,98.24
2017-07-08T06:53:17.434Z,98.44
2017-07-08T06:54:27.702Z,98.87
2017-07-08T06:55:37.971Z,98.82
2017-07-08T06:56:48.238Z,97.76
2017-07-08T06:57:58.444Z,98.34
2017-07-08T06:59:08.729Z,98.72
2017-07-08T07:00:18.679Z,99.21
2017-07-08T07:01:28.637Z,98.63
2017-07-08T07:02:38.910Z,99.11
2017-07-08T07:03:49.414Z,98.82
2017-07-08T07:04:59.719Z,98.72
2017-07-08T07:06:10.007Z,99.21
2017-07-08T07:07:20.280Z,98.72
2017-07-08T07:08:30.532Z,98.53
2017-07-08T07:09:40.754Z,98.72
2017-07-08T07:10:51.024Z,98.24
2017-07-08T07:12:01.296Z,97.19
2017-07-08T07:13:11.575Z,96.61
2017-07-08T07:14:21.860Z,97.96
2017-07-08T07:15:32.374Z,97.91
2017-07-08T07:16:42.670Z,97.86
2017-07-08T07:17:52.624Z,97.86
2017-07-08T07:19:02.889Z,96.03
2017-07-08T07:20:13.154Z,96.56
2017-07-08T07:21:23.700Z,96.42
2017-07-08T07:22:33.967Z,97.28
2017-07-08T07:23:44.243Z,96.42
2017-07-08T07:24:54.185Z,96.7
2017-07-08T07:26:04.134Z,96.61
2017-07-08T07:27:14.343Z,96.22
2017-07-08T07:28:24.279Z,96.51
2017-07-08T07:29:34.602Z,96.13
2017-07-08T07:30:44.870Z,95.26
2017-07-08T07:31:54.857Z,95.36
2017-07-08T07:33:05.386Z,96.32
2017-07-08T07:34:15.347Z,96.22
2017-07-08T07:35:25.620Z,94.78
2017-07-08T07:36:35.891Z,95.55
2017-07-08T07:37:46.153Z,94.98
2017-07-08T07:38:56.348Z,94.88
2017-07-08T07:40:06.613Z,94.78
2017-07-08T07:41:16.893Z,95.17
2017-07-08T07:42:26.839Z,95.17
2017-07-08T07:43:37.149Z,94.3
2017-07-08T07:44:47.365Z,94.88
2017-07-08T07:45:57.653Z,94.78
2017-07-08T07:47:07.930Z,94.88
2017-07-08T07:48:18.195Z,94.21
2017-07-08T07:49:28.459Z,94.3
2017-07-08T07:50:39.002Z,94.78
2017-07-08T07:51:49.281Z,94.3
2017-07-08T07:52:59.543Z,94.4
2017-07-08T07:54:09.836Z,94.11
2017-07-08T07:55:20.120Z,94.3
2017-07-08T07:56:30.651Z,94.49
2017-07-08T07:57:40.622Z,93.73
2017-07-08T07:58:50.574Z,93.44
2017-07-08T08:00:00.833Z,94.11
2017-07-08T08:01:10.791Z,93.44
2017-07-08T08:02:21.041Z,92.38
2017-07-08T08:03:31.322Z,92.76
2017-07-08T08:04:41.596Z,92.76
2017-07-08T08:05:51.880Z,92.57
2017-07-08T08:07:01.533Z,93.44
2017-07-08T08:08:12.054Z,91.71
2017-07-08T08:09:22.010Z,91.8
2017-07-08T08:10:32.283Z,91.66
2017-07-08T08:11:42.568Z,91.85
2017-07-08T08:12:52.857Z,90.89
2017-07-08T08:14:03.440Z,90.98
2017-07-08T08:15:13.385Z,91.08
2017-07-08T08:16:23.363Z,90.75
2017-07-08T08:17:33.329Z,90.41
2017-07-08T08:18:43.597Z,90.84
2017-07-08T08:19:54.116Z,90.98
2017-07-08T08:21:04.389Z,90.41
2017-07-08T08:22:14.654Z,90.69
2017-07-08T08:23:24.911Z,90.5
2017-07-08T08:24:35.180Z,90.94
2017-07-08T08:25:45.680Z,90.41
2017-07-08T08:26:55.944Z,89.92
2017-07-08T08:28:06.221Z,89.15
2017-07-08T08:29:16.170Z,90.21
2017-07-08T08:30:26.437Z,90.41
2017-07-08T08:31:36.962Z,88.19
2017-07-08T08:32:47.250Z,89.35
2017-07-08T08:33:57.190Z,88.39
2017-07-08T08:35:07.445Z,88.1
2017-07-08T08:36:17.078Z,87.33
2017-07-08T08:37:27.299Z,87.52
2017-07-08T08:38:37.248Z,86.94
2017-07-08T08:39:47.509Z,87.33
2017-07-08T08:40:57.781Z,86.65
2017-07-08T08:42:08.046Z,86.75
2017-07-08T08:43:18.547Z,86.89
2017-07-08T08:44:27.877Z,86.22
2017-07-08T08:45:38.176Z,86.02
2017-07-08T08:46:48.455Z,86.02
2017-07-08T08:47:58.408Z,86.89
2017-07-08T08:49:08.616Z,85.83
2017-07-08T08:50:18.875Z,86.41
2017-07-08T08:51:28.860Z,86.41
2017-07-08T08:52:38.523Z,86.22
2017-07-08T08:53:48.810Z,86.02
2017-07-08T08:54:59.024Z,86.99
2017-07-08T08:56:09.290Z,86.35
2017-07-08T08:57:19.567Z,86.65
2017-07-08T08:58:29.831Z,86.07
2017-07-08T08:59:40.093Z,86.65
2017-07-08T09:00:50.309Z,85.87
2017-07-08T09:02:00.578Z,86.45
2017-07-08T09:03:10.550Z,86.07
2017-07-08T09:04:20.815Z,85.87
2017-07-08T09:05:31.091Z,86.07
2017-07-08T09:06:41.660Z,86.16
2017-07-08T09:07:51.962Z,84.86
2017-07-08T09:09:02.255Z,85.3
2017-07-08T09:10:12.521Z,85.58
2017-07-08T09:11:22.789Z,85.1
2017-07-08T09:12:33.312Z,85.87
2017-07-08T09:13:43.268Z,84.62
2017-07-08T09:14:53.551Z,84.91
2017-07-08T09:16:03.837Z,84.53
2017-07-08T09:17:14.114Z,84.72
2017-07-08T09:18:24.683Z,85.68
2017-07-08T09:19:34.634Z,86.07
2017-07-08T09:20:44.919Z,86.65
2017-07-08T09:21:54.883Z,85.53
2017-07-08T09:23:05.149Z,85.24
2017-07-08T09:24:15.036Z,85.97
2017-07-08T09:25:25.005Z,84.18
2017-07-08T09:26:34.971Z,83.99
2017-07-08T09:27:45.292Z,83.99
2017-07-08T09:28:55.249Z,85
2017-07-08T09:30:05.756Z,84.38
2017-07-08T09:31:16.036Z,85.2
2017-07-08T09:32:25.994Z,83.95
2017-07-08T09:33:36.255Z,84.33
2017-07-08T09:34:46.537Z,84.43
2017-07-08T09:35:57.065Z,84.23
2017-07-08T09:37:07.338Z,83.75
2017-07-08T09:38:17.617Z,84.23
2017-07-08T09:39:27.898Z,84.81
2017-07-08T09:40:38.159Z,84.05
2017-07-08T09:41:48.696Z,84.14
2017-07-08T09:42:58.973Z,84.05
2017-07-08T09:44:08.919Z,84.28
2017-07-08T09:45:18.866Z,84.86
2017-07-08T09:46:29.144Z,83.61
2017-07-08T09:47:39.672Z,83.31
2017-07-08T09:48:49.647Z,83.03
2017-07-08T09:49:59.917Z,83.61
2017-07-08T09:51:10.190Z,82.45
2017-07-08T09:52:20.140Z,83.94
2017-07-08T09:53:30.333Z,82.2
2017-07-08T09:54:40.622Z,81.43
2017-07-08T09:55:50.905Z,81.24
2017-07-08T09:57:01.197Z,80.76
2017-07-08T09:58:11.158Z,80.79
2017-07-08T09:59:21.383Z,80.66
2017-07-08T10:00:31.663Z,79.93
2017-07-08T10:01:41.928Z,80.66
2017-07-08T10:02:52.188Z,79.98
2017-07-08T10:04:02.137Z,80.56
2017-07-08T10:05:12.651Z,80.94
2017-07-08T10:06:22.930Z,81.62
2017-07-08T10:07:33.210Z,81.24
2017-07-08T10:08:43.179Z,80.76
2017-07-08T10:09:53.130Z,80.46
2017-07-08T10:11:03.637Z,80.56
2017-07-08T10:12:13.927Z,80.18
2017-07-08T10:13:24.220Z,80.85
2017-07-08T10:14:34.485Z,79.79
2017-07-08T10:15:44.450Z,79.89
2017-07-08T10:16:54.660Z,79.89
2017-07-08T10:18:04.924Z,80.08
2017-07-08T10:19:15.200Z,79.89
2017-07-08T10:20:25.164Z,79.35
2017-07-08T10:21:35.109Z,79.64
2017-07-08T10:22:45.310Z,78.19
2017-07-08T10:23:55.599Z,78.67
2017-07-08T10:25:05.856Z,77.9
2017-07-08T10:26:16.135Z,77.9
2017-07-08T10:27:26.148Z,77.42
2017-07-08T10:28:36.672Z,78.38
2017-07-08T10:29:46.648Z,78.38
2017-07-08T10:30:56.615Z,78.34
2017-07-08T10:32:06.893Z,78.83
2017-07-08T10:33:17.160Z,78.92
2017-07-08T10:34:27.674Z,79.21
2017-07-08T10:35:37.660Z,79.21
2017-07-08T10:36:47.639Z,79.41
2017-07-08T10:37:57.934Z,78.92
2017-07-08T10:39:07.899Z,78.54
2017-07-08T10:40:18.108Z,79.5
2017-07-08T10:41:28.382Z,78.83
2017-07-08T10:42:38.416Z,79.11
2017-07-08T10:43:48.701Z,79.21
2017-07-08T10:44:58.988Z,79.31
2017-07-08T10:46:09.514Z,79.21
2017-07-08T10:47:19.810Z,79.98
2017-07-08T10:48:30.079Z,79.89
2017-07-08T10:49:40.029Z,79.5
2017-07-08T10:50:50.001Z,79.6
2017-07-08T10:52:00.544Z,79.31
2017-07-08T10:53:10.842Z,78.83
2017-07-08T10:54:21.128Z,78.83
2017-07-08T10:55:30.779Z,79.11
2017-07-08T10:56:41.056Z,79.31
2017-07-08T10:57:51.566Z,79.31
2017-07-08T10:59:01.529Z,78.54
2017-07-08T11:00:11.814Z,78.63
2017-07-08T11:01:21.764Z,79.5
2017-07-08T11:02:32.047Z,79.69
2017-07-08T11:03:42.595Z,79.21
2017-07-08T11:04:52.553Z,78.86
2017-07-08T11:06:02.801Z,78.67
2017-07-08T11:07:13.083Z,77.33
2017-07-08T11:08:23.371Z,78.09
2017-07-08T11:09:33.915Z,78.86
2017-07-08T11:10:44.192Z,78.19
2017-07-08T11:11:54.491Z,76.4
2017-07-08T11:13:04.792Z,76.88
2017-07-08T11:14:15.068Z,75.92
2017-07-08T11:15:25.646Z,76.43
2017-07-08T11:16:35.941Z,74.89
2017-07-08T11:17:45.883Z,75.85
2017-07-08T11:18:56.258Z,76.2
2017-07-08T11:20:06.540Z,76.78
2017-07-08T11:21:17.068Z,76.3
2017-07-08T11:22:27.024Z,76.82
2017-07-08T11:23:37.306Z,75.85
2017-07-08T11:24:47.597Z,76.15
2017-07-08T11:25:57.895Z,75.57
2017-07-08T11:27:08.408Z,75.24
2017-07-08T11:28:18.367Z,75.92
2017-07-08T11:29:28.649Z,76.2
2017-07-08T11:30:38.916Z,75.92
2017-07-08T11:31:49.197Z,76.65
2017-07-08T11:32:59.724Z,76.55
2017-07-08T11:34:10.023Z,76.45
2017-07-08T11:35:19.982Z,77.13
2017-07-08T11:36:30.260Z,77.03
2017-07-08T11:37:39.901Z,76.65
2017-07-08T11:38:50.432Z,74.33
2017-07-08T11:40:00.712Z,74.82
2017-07-08T11:41:11.019Z,75.78
2017-07-08T11:42:20.993Z,74.62
2017-07-08T11:43:30.964Z,75.3
2017-07-08T11:44:41.474Z,75.3
2017-07-08T11:45:51.772Z,75.49
2017-07-08T11:47:02.041Z,75.88
2017-07-08T11:48:12.334Z,74.43
2017-07-08T11:49:22.615Z,74.82
2017-07-08T11:50:33.137Z,74.95
2017-07-08T11:51:43.420Z,74.27
2017-07-08T11:52:53.688Z,72.67
2017-07-08T11:54:03.958Z,72.86
2017-07-08T11:55:14.224Z,73.35
2017-07-08T11:56:24.460Z,72.86
2017-07-08T11:57:34.748Z,71.12
2017-07-08T11:58:45.096Z,71.8
2017-07-08T11:59:55.399Z,71.8
2017-07-08T12:01:05.678Z,72.19
2017-07-08T12:02:16.198Z,71.61
2017-07-08T12:03:26.478Z,71.22
2017-07-08T12:04:36.772Z,72.09
2017-07-08T12:05:46.734Z,71.22
2017-07-08T12:06:57.044Z,70.54
2017-07-08T12:08:07.565Z,70.06
2017-07-08T12:09:17.519Z,70.26
2017-07-08T12:10:27.494Z,69.58
2017-07-08T12:11:37.785Z,70.94
2017-07-08T12:12:47.741Z,69.9
2017-07-08T12:13:58.264Z,70.39
2017-07-08T12:15:08.539Z,70.94
2017-07-08T12:16:18.818Z,70.1
2017-07-08T12:17:28.781Z,69.81
2017-07-08T12:18:38.994Z,69.46
2017-07-08T12:19:49.206Z,69.9
2017-07-08T12:20:59.155Z,67.43
2017-07-08T12:22:09.456Z,66.53
2017-07-08T12:23:19.740Z,65.37
2017-07-08T12:24:29.720Z,66.78
2017-07-08T12:25:40.252Z,65.14
2017-07-08T12:26:50.530Z,64.85
2017-07-08T12:28:00.792Z,64.95
2017-07-08T12:29:10.756Z,65.43
2017-07-08T12:30:21.032Z,64.37
2017-07-08T12:31:31.553Z,63.98
2017-07-08T12:32:41.824Z,65.05
2017-07-08T12:33:52.102Z,64.66
2017-07-08T12:35:02.415Z,63.69
2017-07-08T12:36:12.689Z,63.4
2017-07-08T12:37:22.896Z,62.53
2017-07-08T12:38:32.855Z,62.63
2017-07-08T12:39:43.131Z,62.73
2017-07-08T12:40:53.419Z,63.85
2017-07-08T12:42:03.708Z,64.14
2017-07-08T12:43:14.247Z,65.98
2017-07-08T12:44:24.535Z,65.2
2017-07-08T12:45:34.806Z,66.14
2017-07-08T12:46:44.767Z,66.43
2017-07-08T12:47:54.742Z,64.01
2017-07-08T12:49:05.272Z,64.79
2017-07-08T12:50:15.236Z,61.51
2017-07-08T12:51:25.515Z,63.66
2017-07-08T12:52:35.796Z,63.85
2017-07-08T12:53:46.072Z,62.15
2017-07-08T12:54:56.609Z,61.21
2017-07-08T12:56:06.585Z,61.3
2017-07-08T12:57:16.559Z,60.66
2017-07-08T12:58:26.835Z,60.57
2017-07-08T12:59:36.788Z,57.95
2017-07-08T13:00:47.330Z,58.24
2017-07-08T13:01:57.296Z,58.04
2017-07-08T13:03:07.573Z,58.17
2017-07-08T13:04:17.219Z,58.17
2017-07-08T13:05:27.509Z,59.01
2017-07-08T13:06:38.029Z,58.95
2017-07-08T13:07:48.326Z,57.91
2017-07-08T13:08:58.599Z,56.94
2017-07-08T13:10:08.883Z,56.46
2017-07-08T13:11:19.166Z,58.07
2017-07-08T13:12:29.712Z,57.59
2017-07-08T13:13:39.990Z,58.27
2017-07-08T13:14:49.954Z,58.3
2017-07-08T13:15:59.915Z,57.79
2017-07-08T13:17:09.883Z,58.07
2017-07-08T13:18:20.437Z,57.98
2017-07-08T13:19:30.408Z,57.4
2017-07-08T13:20:40.676Z,56.72
2017-07-08T13:21:50.966Z,56.72
2017-07-08T13:23:01.247Z,56.65
2017-07-08T13:24:11.774Z,55.71
2017-07-08T13:25:22.095Z,53.61
2017-07-08T13:26:32.387Z,54.06
2017-07-08T13:27:42.671Z,53.8
2017-07-08T13:28:52.637Z,53.49
2017-07-08T13:30:03.173Z,53.39
2017-07-08T13:31:13.452Z,53.29
2017-07-08T13:32:23.752Z,54.55
2017-07-08T13:33:34.046Z,54.84
2017-07-08T13:34:44.333Z,54.16
2017-07-08T13:35:54.877Z,54.52
2017-07-08T13:37:05.147Z,55.1
2017-07-08T13:38:15.128Z,53.55
2017-07-08T13:39:25.409Z,54.03
2017-07-08T13:40:35.718Z,53.94
2017-07-08T13:41:46.240Z,53.65
2017-07-08T13:42:56.582Z,52.68
2017-07-08T13:44:06.859Z,53.26
2017-07-08T13:45:16.852Z,54.62
2017-07-08T13:46:26.831Z,55
2017-07-08T13:47:37.382Z,53.85
2017-07-08T13:48:47.344Z,53.58
2017-07-08T13:49:57.287Z,53.61
2017-07-08T13:51:07.554Z,53.22
2017-07-08T13:52:17.846Z,53.7
2017-07-08T13:53:28.374Z,51.96
2017-07-08T13:54:38.657Z,51.21
2017-07-08T13:55:48.965Z,51.11
2017-07-08T13:56:59.263Z,52.28
2017-07-08T13:58:09.237Z,50.5
2017-07-08T13:59:19.767Z,50.02
2017-07-08T14:00:30.051Z,50.99
2017-07-08T14:01:40.347Z,50.99
2017-07-08T14:02:50.632Z,52.8
2017-07-08T14:04:00.942Z,51.64
2017-07-08T14:05:11.486Z,51.86
2017-07-08T14:06:21.455Z,49.85
2017-07-08T14:07:31.428Z,49.66
2017-07-08T14:08:41.709Z,50.04
2017-07-08T14:09:51.994Z,50.21
2017-07-08T14:11:02.211Z,50.79
2017-07-08T14:12:12.550Z,50.24
2017-07-08T14:13:22.843Z,50.5
2017-07-08T14:14:32.831Z,50.7
2017-07-08T14:15:43.110Z,49.75
2017-07-08T14:16:53.701Z,49.37
2017-07-08T14:18:03.676Z,48.8
2017-07-08T14:19:13.643Z,48.8
2017-07-08T14:20:23.621Z,49.77
2017-07-08T14:21:33.911Z,50.02
2017-07-08T14:22:44.447Z,49.54
2017-07-08T14:23:54.411Z,50.41
2017-07-08T14:25:04.695Z,48.95
2017-07-08T14:26:14.973Z,49.34
2017-07-08T14:27:25.257Z,48.78
2017-07-08T14:28:35.854Z,49.46
2017-07-08T14:29:46.153Z,49.27
2017-07-08T14:30:56.122Z,47.83
2017-07-08T14:32:06.409Z,48.71
2017-07-08T14:33:16.380Z,48.03
2017-07-08T14:34:26.271Z,47.76
2017-07-08T14:35:36.547Z,46.89
2017-07-08T14:36:45.883Z,47.96
2017-07-08T14:37:56.161Z,47.57
2017-07-08T14:39:06.120Z,47.96
2017-07-08T14:40:16.674Z,46.79
2017-07-08T14:41:26.967Z,47.55
2017-07-08T14:42:37.266Z,47.64
2017-07-08T14:43:47.539Z,46.86
2017-07-08T14:44:57.510Z,46.11
2017-07-08T14:46:08.046Z,45.94
2017-07-08T14:47:18.327Z,46.15
2017-07-08T14:48:28.623Z,45.28
2017-07-08T14:49:38.895Z,44.14
2017-07-08T14:50:48.866Z,44.33
2017-07-08T14:51:59.406Z,44.72
2017-07-08T14:53:09.696Z,44.12
2017-07-08T14:54:19.980Z,45.18
2017-07-08T14:55:30.289Z,45.55
2017-07-08T14:56:40.574Z,45.17
2017-07-08T14:57:51.112Z,46.21
2017-07-08T14:59:01.387Z,46.5
2017-07-08T15:00:11.362Z,46.41
2017-07-08T15:01:21.328Z,46.19
2017-07-08T15:02:31.612Z,45.92
2017-07-08T15:03:42.153Z,46.11
2017-07-08T15:04:52.435Z,45.92
2017-07-08T15:06:02.717Z,45.84